Aviation Digital Data Service (ADDS)

Output produced by METARs form (2017 UTC 20 August 2019)
found at http://www.aviationweather.gov/metar/data/
 
Forecast for: RPMD (DAVAO/FRANCISCO , PH)
Text: TAF RPMD 201700Z 2018/2118 17006KT 9999 FEW016 SCT090 BKN290
Forecast period: 1800 UTC 20 August 2019 to 1800 UTC 21 August 2019
Forecast type: FROM: standard forecast or significant change
Winds: from the S (170 degrees) at 7 MPH (6 knots; 3.1 m/s)
Visibility: 6 or more miles 10+ km)
Ceiling: 29000 feet AGL
Clouds: few clouds at 1600 feet AGL
scattered clouds at 9000 feet AGL
broken clouds at 29000 feet AGL
Weather: no significant weather forecast for this period
Text: TEMPO 2018/2024 VRB02KT -SHRA FEW015CB SCT016 BKN090
Forecast period: 1800 UTC 20 August 2019 to 0000 UTC 21 August 2019
Forecast type: TEMPORARY: The following changes expected for less than half the time period
Winds: variable direction winds at 2 MPH (2 knots; 1.0 m/s)
Visibility: missing
Ceiling: 9000 feet AGL
Clouds: few clouds at 1500 feet AGL
scattered clouds at 1600 feet AGL
broken clouds at 9000 feet AGL
Weather: -SHRA  (light rain showers)